createdAt,value
2023-03-21T00:00:56.237Z,7.72
2023-03-21T00:03:25.456Z,8.08
2023-03-21T00:05:54.856Z,8.14
2023-03-21T00:08:25.731Z,8.16
2023-03-21T00:10:58.447Z,8.15
2023-03-21T00:13:32.650Z,8.17
2023-03-21T00:16:13.612Z,8.16
2023-03-21T00:18:52.502Z,8.11
2023-03-21T00:24:16.755Z,8.13
2023-03-21T00:26:45.092Z,8.15
2023-03-21T00:29:14.661Z,8.06
2023-03-21T00:31:42.932Z,8.26
2023-03-21T00:36:44.707Z,8.18
2023-03-21T00:39:14.217Z,8.06
2023-03-21T00:41:43.514Z,8.19
2023-03-21T00:44:15.780Z,8.21
2023-03-21T00:46:57.278Z,8.12
2023-03-21T00:49:33.959Z,7.83
2023-03-21T00:52:15.160Z,8.09
2023-03-21T00:54:45.319Z,8.09
2023-03-21T00:57:13.552Z,8.00
2023-03-21T00:59:43.190Z,7.86
2023-03-21T01:02:14.783Z,7.90
2023-03-21T01:04:44.533Z,7.83
2023-03-21T01:07:12.769Z,7.86
2023-03-21T01:09:41.035Z,7.81
2023-03-21T01:12:10.595Z,7.74
2023-03-21T01:14:39.253Z,7.16
2023-03-21T01:17:10.015Z,7.30
2023-03-21T01:19:51.180Z,7.69
2023-03-21T01:22:21.114Z,7.66
2023-03-21T01:24:55.369Z,7.71
2023-03-21T01:27:26.763Z,7.79
2023-03-21T01:29:55.685Z,7.78
2023-03-21T01:32:25.308Z,7.70
2023-03-21T01:34:53.514Z,7.70
2023-03-21T01:37:26.331Z,7.63
2023-03-21T01:39:54.546Z,7.69
2023-03-21T01:42:23.474Z,7.63
2023-03-21T01:44:58.956Z,7.68
2023-03-21T01:47:36.926Z,7.74
2023-03-21T01:50:12.552Z,7.70
2023-03-21T01:52:51.361Z,7.68
2023-03-21T01:55:28.723Z,7.73
2023-03-21T01:58:23.165Z,7.69
2023-03-21T02:01:04.861Z,7.82
2023-03-21T02:03:51.648Z,7.74
2023-03-21T02:06:45.681Z,7.74
2023-03-21T02:09:33.483Z,7.59
2023-03-21T02:12:03.045Z,7.46
2023-03-21T02:14:36.051Z,7.60
2023-03-21T02:17:22.886Z,7.53
2023-03-21T02:20:44.001Z,7.53
2023-03-21T02:24:10.343Z,7.44
2023-03-21T02:27:08.897Z,7.44
2023-03-21T02:30:39.984Z,7.40
2023-03-21T02:33:48.276Z,7.45
2023-03-21T02:36:28.485Z,7.28
2023-03-21T02:39:08.941Z,7.30
2023-03-21T02:41:48.250Z,6.66
2023-03-21T02:44:24.142Z,7.27
2023-03-21T02:47:05.378Z,7.38
2023-03-21T02:49:43.532Z,7.25
2023-03-21T02:52:35.553Z,7.26
2023-03-21T02:55:14.246Z,6.39
2023-03-21T02:57:52.805Z,7.21
2023-03-21T03:00:25.596Z,7.15
2023-03-21T03:03:08.206Z,7.00
2023-03-21T03:05:43.518Z,7.23
2023-03-21T03:08:38.504Z,7.20
2023-03-21T03:11:24.335Z,7.29
2023-03-21T03:14:56.506Z,7.13
2023-03-21T03:17:44.309Z,7.26
2023-03-21T03:20:31.243Z,7.28
2023-03-21T03:23:14.941Z,7.19
2023-03-21T03:25:50.273Z,7.25
2023-03-21T03:28:26.278Z,7.11
2023-03-21T03:31:08.766Z,7.12
2023-03-21T03:33:56.904Z,7.09
2023-03-21T03:36:33.169Z,7.17
2023-03-21T03:39:18.075Z,6.96
2023-03-21T03:42:18.270Z,7.01
2023-03-21T03:44:58.665Z,6.96
2023-03-21T03:47:39.935Z,7.11
2023-03-21T03:50:21.506Z,6.99
2023-03-21T03:53:01.246Z,6.99
2023-03-21T03:55:34.614Z,7.03
2023-03-21T03:58:21.675Z,7.01
2023-03-21T04:00:55.385Z,7.01
2023-03-21T04:03:24.030Z,6.96
2023-03-21T04:05:54.045Z,7.13
2023-03-21T04:08:23.199Z,7.01
2023-03-21T04:10:55.341Z,7.00
2023-03-21T04:13:25.799Z,6.97
2023-03-21T04:16:13.045Z,7.00
2023-03-21T04:18:43.155Z,6.99
2023-03-21T04:21:13.471Z,6.92
2023-03-21T04:23:42.954Z,6.80
2023-03-21T04:26:11.587Z,6.73
2023-03-21T04:28:52.524Z,6.76
2023-03-21T04:31:53.822Z,6.74
2023-03-21T04:34:23.889Z,6.57
2023-03-21T04:36:54.503Z,6.61
2023-03-21T04:39:24.755Z,7.05
2023-03-21T04:41:53.056Z,6.46
2023-03-21T04:44:21.973Z,6.59
2023-03-21T04:46:50.347Z,6.68
2023-03-21T04:49:19.956Z,6.62
2023-03-21T04:51:48.196Z,6.51
2023-03-21T04:54:21.029Z,6.58
2023-03-21T04:56:49.267Z,6.61
2023-03-21T04:59:17.766Z,6.63
2023-03-21T05:01:46.710Z,6.25
2023-03-21T05:04:16.209Z,6.64
2023-03-21T05:06:47.260Z,6.62
2023-03-21T05:09:17.697Z,6.57
2023-03-21T05:11:45.952Z,6.54
2023-03-21T05:14:19.285Z,6.57
2023-03-21T05:16:53.489Z,6.57
2023-03-21T05:19:25.867Z,6.56
2023-03-21T05:21:55.589Z,6.47
2023-03-21T05:24:28.664Z,6.61
2023-03-21T05:27:02.722Z,6.55
2023-03-21T05:29:35.520Z,6.51
2023-03-21T05:32:07.061Z,6.45
2023-03-21T05:34:35.290Z,6.40
2023-03-21T05:37:05.629Z,6.38
2023-03-21T05:39:46.686Z,6.42
2023-03-21T05:42:22.447Z,6.32
2023-03-21T05:44:51.108Z,6.32
2023-03-21T05:47:23.973Z,6.27
2023-03-21T05:49:53.894Z,6.37
2023-03-21T05:52:24.724Z,6.39
2023-03-21T05:54:53.286Z,6.49
2023-03-21T05:57:24.728Z,6.46
2023-03-21T06:00:07.208Z,6.34
2023-03-21T06:02:43.626Z,6.53
2023-03-21T06:05:31.226Z,6.38
2023-03-21T06:08:01.474Z,6.47
2023-03-21T06:10:29.810Z,6.65
2023-03-21T06:12:59.374Z,6.56
2023-03-21T06:15:30.639Z,6.61
2023-03-21T06:18:06.478Z,6.66
2023-03-21T06:20:35.926Z,6.70
2023-03-21T06:23:11.367Z,6.71
2023-03-21T06:25:40.098Z,6.65
2023-03-21T06:28:08.546Z,6.65
2023-03-21T06:30:41.130Z,6.75
2023-03-21T06:33:15.794Z,6.90
2023-03-21T06:35:45.775Z,6.57
2023-03-21T06:38:15.759Z,7.04
2023-03-21T06:40:43.978Z,7.18
2023-03-21T06:43:12.169Z,7.15
2023-03-21T06:45:41.152Z,7.21
2023-03-21T06:48:12.512Z,7.05
2023-03-21T06:50:52.117Z,7.35
2023-03-21T06:53:27.298Z,7.45
2023-03-21T06:56:16.274Z,7.45
2023-03-21T06:58:46.538Z,7.60
2023-03-21T07:01:27.674Z,7.57
2023-03-21T07:04:15.901Z,7.73
2023-03-21T07:06:47.979Z,7.69
2023-03-21T07:09:18.552Z,7.76
2023-03-21T07:11:47.672Z,6.91
2023-03-21T07:14:15.956Z,7.77
2023-03-21T07:16:44.267Z,8.00
2023-03-21T07:19:12.859Z,7.96
2023-03-21T07:21:41.085Z,7.94
2023-03-21T07:24:10.041Z,8.10
2023-03-21T07:26:40.391Z,8.14
2023-03-21T07:29:08.655Z,8.31
2023-03-21T07:31:37.468Z,8.41
2023-03-21T07:34:05.941Z,8.53
2023-03-21T07:36:34.466Z,8.49
2023-03-21T07:39:02.995Z,8.49
2023-03-21T07:41:32.331Z,8.57
2023-03-21T07:44:13.824Z,8.54
2023-03-21T07:46:42.192Z,8.50
2023-03-21T07:49:10.382Z,8.77
2023-03-21T07:51:39.228Z,8.83
2023-03-21T07:54:07.715Z,8.79
2023-03-21T07:56:36.438Z,8.80
2023-03-21T07:59:05.418Z,8.82
2023-03-21T08:01:35.085Z,8.91
2023-03-21T08:04:03.231Z,9.12
2023-03-21T08:06:32.603Z,9.26
2023-03-21T08:09:01.506Z,8.99
2023-03-21T08:11:31.488Z,9.27
2023-03-21T08:13:59.934Z,9.51
2023-03-21T08:16:28.350Z,9.40
2023-03-21T08:18:57.923Z,9.38
2023-03-21T08:21:26.264Z,9.54
2023-03-21T08:23:54.904Z,9.25
2023-03-21T08:26:25.171Z,9.38
2023-03-21T08:28:53.552Z,9.09
2023-03-21T08:31:22.543Z,9.42
2023-03-21T08:33:54.823Z,9.77
2023-03-21T08:36:24.722Z,9.84
2023-03-21T08:38:56.863Z,9.82
2023-03-21T08:41:26.023Z,9.79
2023-03-21T08:43:54.218Z,9.88
2023-03-21T08:46:23.020Z,9.96
2023-03-21T08:48:51.256Z,10.07
2023-03-21T08:51:19.611Z,10.33
2023-03-21T08:53:50.986Z,10.40
2023-03-21T08:56:19.509Z,10.59
2023-03-21T08:58:47.726Z,10.51
2023-03-21T09:01:20.366Z,10.58
2023-03-21T09:03:49.785Z,10.51
2023-03-21T09:06:21.766Z,10.56
2023-03-21T09:08:52.733Z,10.58
2023-03-21T09:11:20.919Z,10.64
2023-03-21T09:13:49.227Z,10.66
2023-03-21T09:16:17.544Z,10.62
2023-03-21T09:18:47.314Z,10.66
2023-03-21T09:21:16.732Z,10.68
2023-03-21T09:23:46.189Z,10.76
2023-03-21T09:26:16.275Z,10.65
2023-03-21T09:28:44.539Z,10.76
2023-03-21T09:31:14.658Z,10.61
2023-03-21T09:33:43.769Z,10.73
2023-03-21T09:36:14.247Z,11.00
2023-03-21T09:38:45.591Z,11.11
2023-03-21T09:41:32.344Z,10.95
2023-03-21T09:44:16.320Z,11.32
2023-03-21T09:46:52.355Z,11.30
2023-03-21T09:49:29.575Z,11.39
2023-03-21T09:51:59.864Z,11.69
2023-03-21T09:54:33.429Z,11.85
2023-03-21T09:57:14.975Z,11.86
2023-03-21T09:59:43.478Z,12.04
2023-03-21T10:02:35.883Z,11.71
2023-03-21T10:05:13.553Z,11.73
2023-03-21T10:07:47.669Z,11.92
2023-03-21T10:10:23.687Z,12.02
2023-03-21T10:12:55.325Z,11.92
2023-03-21T10:15:27.717Z,12.15
2023-03-21T10:18:08.116Z,12.15
2023-03-21T10:20:38.928Z,12.28
2023-03-21T10:23:12.682Z,12.09
2023-03-21T10:25:44.452Z,12.40
2023-03-21T10:28:18.648Z,12.53
2023-03-21T10:30:51.512Z,12.68
2023-03-21T10:33:23.871Z,12.74
2023-03-21T10:35:55.752Z,12.46
2023-03-21T10:38:26.906Z,12.58
2023-03-21T10:40:55.963Z,12.58
2023-03-21T10:43:38.764Z,12.51
2023-03-21T10:46:10.942Z,12.68
2023-03-21T10:48:46.142Z,13.27
2023-03-21T10:51:20.793Z,13.29
2023-03-21T10:53:54.077Z,13.06
2023-03-21T10:56:27.891Z,13.48
2023-03-21T10:58:59.722Z,13.61
2023-03-21T11:01:36.466Z,13.52
2023-03-21T11:04:31.716Z,13.60
2023-03-21T11:07:07.025Z,13.68
2023-03-21T11:09:50.022Z,13.58
2023-03-21T11:12:30.568Z,13.65
2023-03-21T11:15:27.526Z,13.61
2023-03-21T11:17:55.990Z,13.78
2023-03-21T11:20:24.948Z,13.53
2023-03-21T11:22:56.888Z,13.65
2023-03-21T11:25:34.988Z,13.57
2023-03-21T11:28:08.472Z,13.73
2023-03-21T11:30:38.630Z,13.80
2023-03-21T11:33:08.162Z,13.89
2023-03-21T11:35:39.546Z,14.39
2023-03-21T11:38:25.900Z,14.63
2023-03-21T11:40:59.292Z,14.57
2023-03-21T11:43:31.799Z,14.37
2023-03-21T11:46:08.647Z,14.42
2023-03-21T11:48:42.254Z,14.50
2023-03-21T11:51:23.804Z,14.44
2023-03-21T11:54:01.376Z,14.37
2023-03-21T11:56:33.714Z,14.16
2023-03-21T11:59:22.189Z,14.69
2023-03-21T12:02:33.656Z,14.77
2023-03-21T12:05:06.384Z,14.77
2023-03-21T12:07:51.968Z,14.80
2023-03-21T12:10:33.638Z,14.90
2023-03-21T12:13:17.894Z,15.01
2023-03-21T12:15:58.851Z,14.72
2023-03-21T12:19:14.420Z,14.95
2023-03-21T12:21:55.040Z,14.94
2023-03-21T12:24:26.464Z,14.91
2023-03-21T12:27:02.032Z,15.01
2023-03-21T12:30:02.202Z,14.83
2023-03-21T12:32:46.429Z,14.92
2023-03-21T12:35:31.806Z,15.00
2023-03-21T12:38:16.718Z,14.83
2023-03-21T12:41:10.334Z,14.90
2023-03-21T12:43:55.339Z,14.67
2023-03-21T12:46:29.378Z,14.68
2023-03-21T12:49:02.618Z,14.72
2023-03-21T12:51:35.979Z,14.60
2023-03-21T12:54:15.029Z,14.74
2023-03-21T12:56:51.443Z,14.78
2023-03-21T12:59:28.383Z,14.68
2023-03-21T13:02:02.366Z,14.78
2023-03-21T13:04:43.629Z,14.60
2023-03-21T13:07:20.096Z,14.64
2023-03-21T13:09:48.551Z,14.56
2023-03-21T13:12:36.429Z,14.53
2023-03-21T13:15:24.371Z,14.63
2023-03-21T13:18:02.695Z,14.50
2023-03-21T13:20:37.261Z,14.24
2023-03-21T13:23:37.816Z,14.18
2023-03-21T13:26:11.289Z,14.26
2023-03-21T13:28:42.209Z,14.33
2023-03-21T13:31:21.897Z,14.39
2023-03-21T13:33:52.400Z,14.43
2023-03-21T13:36:26.830Z,14.18
2023-03-21T13:39:05.559Z,14.39
2023-03-21T13:41:37.134Z,14.47
2023-03-21T13:44:20.865Z,14.48
2023-03-21T13:46:56.263Z,14.55
2023-03-21T13:49:36.731Z,14.36
2023-03-21T13:52:27.555Z,14.28
2023-03-21T13:54:58.898Z,14.48
2023-03-21T13:57:40.735Z,14.22
2023-03-21T14:00:20.934Z,14.11
2023-03-21T14:02:58.339Z,14.17
2023-03-21T14:05:29.374Z,14.12
2023-03-21T14:08:13.600Z,14.20
2023-03-21T14:10:49.113Z,14.07
2023-03-21T14:13:21.925Z,14.17
2023-03-21T14:15:56.829Z,14.25
2023-03-21T14:18:48.092Z,14.16
2023-03-21T14:21:24.356Z,14.08
2023-03-21T14:24:01.492Z,14.07
2023-03-21T14:26:35.492Z,14.12
2023-03-21T14:29:09.695Z,14.09
2023-03-21T14:31:46.761Z,14.11
2023-03-21T14:34:17.065Z,13.80
2023-03-21T14:36:55.442Z,13.97
2023-03-21T14:39:29.663Z,13.96
2023-03-21T14:42:06.139Z,13.77
2023-03-21T14:44:52.812Z,13.80
2023-03-21T14:47:25.224Z,13.71
2023-03-21T14:49:53.987Z,13.61
2023-03-21T14:52:26.707Z,13.66
2023-03-21T14:54:56.492Z,13.58
2023-03-21T14:57:29.820Z,13.58
2023-03-21T15:00:02.200Z,13.59
2023-03-21T15:02:36.565Z,13.59
2023-03-21T15:05:11.952Z,13.30
2023-03-21T15:07:40.962Z,13.29
2023-03-21T15:10:17.952Z,14.14
2023-03-21T15:12:57.239Z,13.49
2023-03-21T15:15:27.969Z,13.36
2023-03-21T15:18:00.045Z,13.28
2023-03-21T15:20:33.380Z,13.41
2023-03-21T15:23:05.603Z,13.28
2023-03-21T15:25:37.612Z,13.14
2023-03-21T15:28:07.657Z,13.10
2023-03-21T15:30:36.122Z,13.15
2023-03-21T15:33:10.390Z,13.09
2023-03-21T15:35:41.623Z,13.03
2023-03-21T15:38:24.838Z,13.09
2023-03-21T15:40:53.093Z,13.05
2023-03-21T15:43:23.103Z,12.86
2023-03-21T15:45:56.772Z,12.52
2023-03-21T15:48:28.188Z,12.26
2023-03-21T15:51:03.083Z,12.81
2023-03-21T15:53:34.488Z,12.76
2023-03-21T15:56:06.102Z,12.77
2023-03-21T15:58:38.698Z,12.78
2023-03-21T16:01:13.336Z,12.79
2023-03-21T16:03:46.575Z,12.79
2023-03-21T16:06:21.792Z,12.64
2023-03-21T16:08:52.115Z,12.77
2023-03-21T16:11:26.025Z,12.95
2023-03-21T16:13:56.898Z,12.77
2023-03-21T16:16:27.565Z,12.68
2023-03-21T16:18:58.100Z,12.80
2023-03-21T16:21:28.926Z,12.77
2023-03-21T16:23:58.178Z,12.56
2023-03-21T16:26:30.617Z,12.77
2023-03-21T16:29:00.698Z,12.62
2023-03-21T16:31:32.317Z,12.67
2023-03-21T16:34:01.669Z,12.43
2023-03-21T16:36:32.465Z,12.52
2023-03-21T16:39:01.583Z,12.66
2023-03-21T16:41:29.805Z,12.59
2023-03-21T16:43:59.362Z,12.70
2023-03-21T16:46:28.550Z,12.72
2023-03-21T16:48:59.315Z,12.38
2023-03-21T16:51:34.524Z,12.65
2023-03-21T16:54:03.329Z,12.65
2023-03-21T16:56:38.339Z,12.69
2023-03-21T16:59:08.936Z,12.58
2023-03-21T17:01:38.393Z,12.61
2023-03-21T17:04:06.916Z,12.46
2023-03-21T17:06:44.551Z,12.40
2023-03-21T17:09:14.667Z,11.45
2023-03-21T17:11:43.255Z,12.40
2023-03-21T17:14:16.789Z,12.41
2023-03-21T17:16:45.753Z,12.45
2023-03-21T17:19:17.125Z,12.46
2023-03-21T17:21:47.104Z,12.49
2023-03-21T17:24:15.629Z,12.29
2023-03-21T17:26:43.982Z,12.35
2023-03-21T17:29:15.569Z,12.35
2023-03-21T17:31:47.318Z,12.21
2023-03-21T17:34:16.062Z,12.19
2023-03-21T17:36:47.356Z,12.11
2023-03-21T17:39:22.633Z,12.21
2023-03-21T17:41:51.972Z,12.16
2023-03-21T17:44:22.151Z,12.10
2023-03-21T17:46:52.205Z,12.05
2023-03-21T17:49:21.192Z,12.06
2023-03-21T17:51:50.441Z,12.01
2023-03-21T17:54:18.842Z,11.89
2023-03-21T17:56:47.397Z,11.92
2023-03-21T17:59:16.341Z,12.40
2023-03-21T18:01:46.630Z,11.84
2023-03-21T18:04:14.929Z,11.72
2023-03-21T18:06:43.135Z,11.70
2023-03-21T18:09:12.397Z,11.54
2023-03-21T18:11:41.791Z,10.91
2023-03-21T18:14:17.627Z,11.46
2023-03-21T18:16:50.645Z,10.38
2023-03-21T18:19:19.012Z,11.48
2023-03-21T18:21:47.184Z,11.46
2023-03-21T18:24:16.177Z,12.00
2023-03-21T18:26:46.171Z,11.26
2023-03-21T18:32:09.004Z,11.25
2023-03-21T18:34:39.422Z,11.18
2023-03-21T18:37:08.875Z,11.18
2023-03-21T18:39:38.207Z,11.06
2023-03-21T18:42:10.807Z,11.20
2023-03-21T18:44:45.662Z,11.14
2023-03-21T18:47:16.041Z,11.10
2023-03-21T18:50:15.193Z,11.06
2023-03-21T18:52:33.082Z,11.17
2023-03-21T18:55:01.270Z,11.18
2023-03-21T18:57:37.013Z,11.18
2023-03-21T19:00:12.954Z,11.07
2023-03-21T19:02:47.664Z,10.94
2023-03-21T19:05:18.582Z,10.91
2023-03-21T19:07:48.035Z,10.93
2023-03-21T19:10:19.956Z,10.83
2023-03-21T19:12:49.674Z,10.91
2023-03-21T19:15:19.816Z,10.70
2023-03-21T19:20:38.968Z,10.74
2023-03-21T19:23:09.340Z,10.73
2023-03-21T19:25:38.377Z,10.67
2023-03-21T19:28:06.921Z,10.57
2023-03-21T19:30:35.205Z,10.54
2023-03-21T19:33:05.343Z,10.76
2023-03-21T19:35:37.292Z,10.65
2023-03-21T19:38:06.113Z,10.57
2023-03-21T19:40:34.549Z,9.79
2023-03-21T19:43:21.534Z,10.62
2023-03-21T19:45:51.545Z,10.48
2023-03-21T19:48:23.463Z,10.57
2023-03-21T19:51:25.833Z,10.51
2023-03-21T19:53:40.654Z,10.60
2023-03-21T19:56:20.746Z,10.38
2023-03-21T19:58:50.551Z,10.40
2023-03-21T20:01:19.102Z,10.43
2023-03-21T20:03:48.661Z,10.53
2023-03-21T20:06:17.251Z,10.36
2023-03-21T20:11:33.868Z,10.23
2023-03-21T20:14:03.268Z,10.26
2023-03-21T20:16:35.860Z,10.39
2023-03-21T20:19:08.907Z,10.30
2023-03-21T20:21:47.689Z,10.32
2023-03-21T20:24:18.572Z,10.28
2023-03-21T20:26:47.217Z,10.29
2023-03-21T20:32:03.815Z,10.17
2023-03-21T20:34:36.808Z,10.18
2023-03-21T20:37:06.270Z,10.23
2023-03-21T20:39:34.651Z,10.18
2023-03-21T20:42:09.276Z,10.18
2023-03-21T20:44:57.745Z,10.19
2023-03-21T20:47:26.451Z,10.17
2023-03-21T20:49:56.760Z,10.28
2023-03-21T20:53:00.851Z,10.28
2023-03-21T20:55:14.419Z,10.24
2023-03-21T20:57:42.886Z,9.72
2023-03-21T21:00:14.927Z,10.12
2023-03-21T21:02:45.364Z,9.59
2023-03-21T21:05:34.464Z,9.69
2023-03-21T21:08:04.169Z,9.94
2023-03-21T21:10:33.788Z,9.90
2023-03-21T21:13:02.797Z,10.06
2023-03-21T21:15:31.311Z,10.04
2023-03-21T21:18:07.834Z,9.90
2023-03-21T21:20:40.191Z,10.00
2023-03-21T21:23:09.544Z,9.98
2023-03-21T21:25:38.959Z,9.96
2023-03-21T21:28:09.395Z,10.05
2023-03-21T21:30:41.267Z,10.05
2023-03-21T21:33:09.890Z,10.10
2023-03-21T21:35:39.605Z,10.09
2023-03-21T21:38:07.984Z,9.89
2023-03-21T21:40:36.494Z,9.81
2023-03-21T21:43:04.950Z,9.88
2023-03-21T21:45:33.556Z,9.81
2023-03-21T21:48:02.090Z,9.62
2023-03-21T21:50:30.385Z,9.73
2023-03-21T21:53:03.754Z,9.77
2023-03-21T21:55:32.464Z,9.71
2023-03-21T21:58:01.361Z,9.66
2023-03-21T22:00:31.743Z,9.69
2023-03-21T22:03:01.462Z,9.63
2023-03-21T22:05:30.182Z,9.50
2023-03-21T22:07:59.752Z,9.53
2023-03-21T22:10:28.436Z,9.48
2023-03-21T22:12:56.690Z,9.42
2023-03-21T22:15:25.176Z,9.57
2023-03-21T22:17:53.674Z,9.43
2023-03-21T22:20:22.588Z,9.53
2023-03-21T22:22:50.876Z,9.48
2023-03-21T22:25:20.786Z,9.44
2023-03-21T22:27:49.013Z,9.41
2023-03-21T22:30:18.590Z,9.61
2023-03-21T22:33:06.139Z,9.56
2023-03-21T22:35:34.733Z,9.49
2023-03-21T22:38:03.002Z,9.49
2023-03-21T22:40:32.693Z,9.51
2023-03-21T22:43:00.990Z,9.42
2023-03-21T22:45:29.457Z,9.50
2023-03-21T22:47:59.865Z,9.45
2023-03-21T22:50:28.838Z,9.29
2023-03-21T22:52:57.066Z,9.43
2023-03-21T22:55:25.281Z,9.34
2023-03-21T22:57:54.849Z,9.32
2023-03-21T23:00:23.455Z,9.30
2023-03-21T23:02:51.770Z,9.26
2023-03-21T23:05:20.419Z,9.28
2023-03-21T23:07:49.273Z,9.27
2023-03-21T23:10:18.112Z,9.26
2023-03-21T23:12:46.372Z,9.28
2023-03-21T23:15:16.010Z,9.28
2023-03-21T23:17:44.838Z,9.18
2023-03-21T23:20:13.248Z,9.18
2023-03-21T23:22:41.936Z,9.18
2023-03-21T23:25:11.991Z,9.14
2023-03-21T23:27:40.279Z,9.17
2023-03-21T23:30:09.892Z,9.18
2023-03-21T23:32:39.503Z,9.10
2023-03-21T23:35:09.631Z,9.15
2023-03-21T23:37:38.149Z,9.03
2023-03-21T23:40:09.179Z,9.04
2023-03-21T23:42:37.410Z,8.99
2023-03-21T23:45:06.988Z,8.78
2023-03-21T23:47:35.262Z,8.73
2023-03-21T23:50:07.783Z,8.74
2023-03-21T23:52:36.867Z,8.68
2023-03-21T23:55:06.415Z,8.64
2023-03-21T23:57:34.948Z,8.50
